createdAt,value
2023-03-03T00:03:00.900Z,-1.81
2023-03-03T00:05:47.891Z,-1.79
2023-03-03T00:08:34.773Z,-1.76
2023-03-03T00:11:21.673Z,-1.75
2023-03-03T00:14:25.672Z,-1.68
2023-03-03T00:17:24.301Z,-1.56
2023-03-03T00:20:40.961Z,-1.43
2023-03-03T00:23:27.410Z,-1.38
2023-03-03T00:26:29.519Z,-1.33
2023-03-03T00:29:37.194Z,-1.24
2023-03-03T00:32:25.533Z,-1.13
2023-03-03T00:35:25.063Z,-1.07
2023-03-03T00:38:18.360Z,-1.04
2023-03-03T00:41:16.362Z,-0.94
2023-03-03T00:44:31.972Z,-0.86
2023-03-03T00:47:31.399Z,-0.85
2023-03-03T00:50:32.549Z,-0.81
2023-03-03T00:53:23.427Z,-0.76
2023-03-03T00:56:10.552Z,-0.72
2023-03-03T00:58:57.263Z,-0.72
2023-03-03T01:01:55.494Z,-0.73
2023-03-03T01:04:48.970Z,-0.69
2023-03-03T01:07:36.217Z,-0.60
2023-03-03T01:10:23.305Z,-0.55
2023-03-03T01:13:13.199Z,-0.56
2023-03-03T01:16:02.137Z,-0.59
2023-03-03T01:18:48.880Z,-0.64
2023-03-03T01:21:36.216Z,-0.65
2023-03-03T01:24:23.284Z,-0.63
2023-03-03T01:27:09.938Z,-0.59
2023-03-03T01:29:57.293Z,-0.59
2023-03-03T01:32:44.554Z,-0.58
2023-03-03T01:35:31.127Z,-0.57
2023-03-03T01:38:17.960Z,-0.54
2023-03-03T01:41:05.323Z,-0.59
2023-03-03T01:45:50.305Z,-0.59
2023-03-03T01:48:42.879Z,-0.60
2023-03-03T01:51:34.048Z,-0.59
2023-03-03T01:54:39.993Z,-0.61
2023-03-03T01:57:39.680Z,-0.62
2023-03-03T02:00:29.745Z,-0.61
2023-03-03T02:03:17.978Z,-0.61
2023-03-03T02:06:11.676Z,-0.61
2023-03-03T02:09:21.514Z,-0.66
2023-03-03T02:12:11.537Z,-0.62
2023-03-03T02:14:58.370Z,-0.56
2023-03-03T02:17:47.169Z,-0.48
2023-03-03T02:20:55.645Z,-0.44
2023-03-03T02:23:53.361Z,-0.44
2023-03-03T02:26:41.594Z,-0.49
2023-03-03T02:29:28.311Z,-0.48
2023-03-03T02:32:15.314Z,-0.44
2023-03-03T02:35:03.842Z,-0.42
2023-03-03T02:37:51.631Z,-0.42
2023-03-03T02:40:44.945Z,-0.40
2023-03-03T02:43:57.458Z,-0.40
2023-03-03T02:46:47.638Z,-0.30
2023-03-03T02:49:36.428Z,-0.27
2023-03-03T02:52:22.925Z,-0.26
2023-03-03T02:55:37.099Z,-0.27
2023-03-03T02:58:24.000Z,-0.25
2023-03-03T03:01:11.407Z,-0.23
2023-03-03T03:04:00.908Z,-0.19
2023-03-03T03:06:47.901Z,-0.21
2023-03-03T03:09:34.386Z,-0.21
2023-03-03T03:12:27.548Z,-0.19
2023-03-03T03:15:16.024Z,-0.21
2023-03-03T03:18:02.966Z,-0.26
2023-03-03T03:20:49.824Z,-0.31
2023-03-03T03:23:36.952Z,-0.32
2023-03-03T03:26:28.957Z,-0.36
2023-03-03T03:29:15.654Z,-0.42
2023-03-03T03:32:02.347Z,-0.42
2023-03-03T03:34:50.022Z,-0.42
2023-03-03T03:37:36.708Z,-0.47
2023-03-03T03:40:26.871Z,-0.48
2023-03-03T03:43:13.310Z,-0.48
2023-03-03T03:46:00.290Z,-0.51
2023-03-03T03:48:47.004Z,-0.57
2023-03-03T03:51:41.390Z,-0.61
2023-03-03T03:54:28.787Z,-0.62
2023-03-03T03:57:15.343Z,-0.66
2023-03-03T04:00:03.064Z,-0.67
2023-03-03T04:02:55.669Z,-0.68
2023-03-03T04:05:43.170Z,-0.69
2023-03-03T04:08:29.546Z,-0.71
2023-03-03T04:11:17.125Z,-0.75
2023-03-03T04:14:30.291Z,-0.75
2023-03-03T04:17:22.410Z,-0.74
2023-03-03T04:20:12.863Z,-0.79
2023-03-03T04:23:00.142Z,-0.81
2023-03-03T04:25:48.733Z,-0.80
2023-03-03T04:28:36.509Z,-0.79
2023-03-03T04:31:23.690Z,-0.79
2023-03-03T04:34:10.693Z,-0.78
2023-03-03T04:36:59.009Z,-0.74
2023-03-03T04:39:45.908Z,-0.74
2023-03-03T04:42:32.846Z,-0.76
2023-03-03T04:45:19.551Z,-0.78
2023-03-03T04:48:06.862Z,-0.81
2023-03-03T04:50:54.967Z,-0.82
2023-03-03T04:53:41.682Z,-0.79
2023-03-03T04:56:33.087Z,-0.75
2023-03-03T04:59:20.171Z,-0.75
2023-03-03T05:02:07.119Z,-0.73
2023-03-03T05:04:54.196Z,-0.71
2023-03-03T05:07:41.058Z,-0.68
2023-03-03T05:10:29.840Z,-0.65
2023-03-03T05:13:19.564Z,-0.64
2023-03-03T05:16:08.589Z,-0.68
2023-03-03T05:19:01.470Z,-0.72
2023-03-03T05:21:49.097Z,-0.74
2023-03-03T05:24:36.476Z,-0.79
2023-03-03T05:27:24.072Z,-0.80
2023-03-03T05:30:12.306Z,-0.76
2023-03-03T05:33:00.104Z,-0.73
2023-03-03T05:43:11.137Z,-0.33
2023-03-03T05:47:13.919Z,-0.22
2023-03-03T05:50:02.313Z,-0.13
2023-03-03T05:52:53.125Z,-0.08
2023-03-03T05:55:40.218Z,-0.04
2023-03-03T05:58:28.424Z,0.01
2023-03-03T06:01:23.788Z,0.10
2023-03-03T06:05:05.677Z,0.29
2023-03-03T06:07:55.233Z,0.65
2023-03-03T06:11:02.408Z,0.82
2023-03-03T06:13:50.747Z,0.80
2023-03-03T06:16:38.000Z,0.79
2023-03-03T06:19:25.275Z,0.79
2023-03-03T06:22:12.330Z,0.81
2023-03-03T06:25:42.147Z,0.85
2023-03-03T06:29:39.264Z,0.94
2023-03-03T06:32:29.629Z,1.04
2023-03-03T06:35:17.671Z,1.31
2023-03-03T06:38:04.558Z,1.73
2023-03-03T06:40:51.381Z,2.15
2023-03-03T06:43:38.860Z,2.50
2023-03-03T06:46:45.428Z,2.54
2023-03-03T06:50:13.280Z,2.30
2023-03-03T06:54:26.923Z,1.81
2023-03-03T06:57:23.266Z,1.52
2023-03-03T07:00:25.139Z,1.05
2023-03-03T07:03:16.247Z,0.79
2023-03-03T07:06:15.467Z,0.65
2023-03-03T07:09:01.899Z,0.51
2023-03-03T07:12:01.459Z,0.59
2023-03-03T07:14:55.701Z,0.51
2023-03-03T07:17:50.508Z,0.47
2023-03-03T07:23:31.107Z,0.34
2023-03-03T07:27:29.147Z,0.43
2023-03-03T07:30:28.109Z,0.46
2023-03-03T07:33:28.079Z,0.43
2023-03-03T07:36:35.972Z,0.28
2023-03-03T07:42:08.690Z,0.33
2023-03-03T07:45:00.230Z,0.43
2023-03-03T07:47:46.909Z,0.39
2023-03-03T07:50:35.150Z,0.55
2023-03-03T07:53:30.069Z,0.74
2023-03-03T07:56:34.460Z,0.79
2023-03-03T07:59:26.790Z,0.68
2023-03-03T08:02:35.042Z,0.59
2023-03-03T08:17:38.764Z,1.18
2023-03-03T08:31:41.199Z,1.28
2023-03-03T08:35:09.931Z,1.31
2023-03-03T08:38:58.241Z,1.25
2023-03-03T08:41:47.272Z,1.39
2023-03-03T08:44:32.533Z,1.63
2023-03-03T08:47:18.070Z,1.77
2023-03-03T08:50:07.113Z,1.70
2023-03-03T09:22:38.086Z,1.20
2023-03-03T09:36:39.203Z,1.50
2023-03-03T09:39:39.339Z,1.43
2023-03-03T09:43:24.249Z,1.56
2023-03-03T09:46:32.496Z,1.60
2023-03-03T09:49:36.686Z,1.46
2023-03-03T09:53:00.810Z,1.42
2023-03-03T09:56:02.467Z,1.34
2023-03-03T09:59:09.480Z,1.41
2023-03-03T10:01:56.238Z,1.33
2023-03-03T10:04:54.407Z,1.29
2023-03-03T10:08:16.147Z,1.15
2023-03-03T10:11:27.553Z,1.34
2023-03-03T10:14:32.253Z,1.55
2023-03-03T10:17:45.255Z,1.40
2023-03-03T10:21:02.691Z,1.11
2023-03-03T10:24:30.226Z,1.02
2023-03-03T10:27:43.364Z,1.06
2023-03-03T10:31:04.039Z,1.06
2023-03-03T10:33:46.678Z,1.08
2023-03-03T10:36:33.213Z,0.95
2023-03-03T10:39:39.771Z,0.91
2023-03-03T10:42:56.259Z,1.00
2023-03-03T10:46:01.270Z,1.17
2023-03-03T10:49:08.730Z,1.26
2023-03-03T10:52:05.748Z,1.34
2023-03-03T10:55:20.054Z,1.41
2023-03-03T10:58:38.015Z,1.41
2023-03-03T11:01:45.515Z,1.39
2023-03-03T11:04:47.609Z,1.38
2023-03-03T11:07:57.743Z,1.56
2023-03-03T11:11:05.414Z,1.60
2023-03-03T11:13:56.382Z,1.67
2023-03-03T11:16:53.210Z,1.74
2023-03-03T11:19:39.708Z,1.71
2023-03-03T11:22:49.148Z,1.76
2023-03-03T11:25:55.889Z,1.65
2023-03-03T11:29:05.595Z,1.62
2023-03-03T11:32:22.729Z,1.43
2023-03-03T11:35:21.334Z,1.16
2023-03-03T11:38:30.032Z,1.16
2023-03-03T11:41:39.691Z,1.15
2023-03-03T11:44:44.251Z,1.14
2023-03-03T11:47:40.808Z,1.22
2023-03-03T11:50:42.724Z,1.18
2023-03-03T11:53:38.994Z,1.02
2023-03-03T11:56:46.834Z,1.03
2023-03-03T11:59:42.486Z,1.14
2023-03-03T12:02:46.163Z,1.11
2023-03-03T12:05:50.504Z,0.84
2023-03-03T12:08:42.066Z,0.80
2023-03-03T12:11:35.616Z,0.90
2023-03-03T12:14:37.128Z,0.90
2023-03-03T12:18:04.722Z,0.98
2023-03-03T12:20:57.854Z,1.07
2023-03-03T12:23:50.532Z,1.08
2023-03-03T12:26:59.752Z,0.99
2023-03-03T12:30:05.001Z,0.97
2023-03-03T12:32:56.750Z,1.01
2023-03-03T12:36:14.450Z,0.98
2023-03-03T12:39:13.563Z,1.02
2023-03-03T12:42:26.810Z,0.85
2023-03-03T12:45:30.035Z,0.78
2023-03-03T12:48:36.610Z,0.77
2023-03-03T12:51:41.983Z,0.91
2023-03-03T12:54:57.644Z,0.95
2023-03-03T12:57:55.614Z,0.83
2023-03-03T13:00:48.391Z,0.83
2023-03-03T13:03:58.453Z,0.91
2023-03-03T13:07:04.602Z,0.93
2023-03-03T13:10:16.785Z,0.97
2023-03-03T13:13:16.828Z,0.92
2023-03-03T13:16:16.783Z,0.93
2023-03-03T13:19:15.974Z,0.99
2023-03-03T13:22:16.211Z,0.87
2023-03-03T13:25:30.664Z,0.69
2023-03-03T13:28:23.496Z,0.53
2023-03-03T13:31:11.193Z,0.50
2023-03-03T13:34:00.799Z,0.58
2023-03-03T13:37:07.956Z,0.67
2023-03-03T13:40:50.971Z,0.63
2023-03-03T13:44:51.197Z,0.39
2023-03-03T13:48:09.209Z,0.39
2023-03-03T13:51:02.638Z,0.52
2023-03-03T13:53:52.366Z,0.46
2023-03-03T13:59:22.996Z,0.50
2023-03-03T14:02:48.329Z,0.61
2023-03-03T14:05:44.418Z,0.72
2023-03-03T14:08:56.200Z,0.78
2023-03-03T14:11:48.718Z,0.72
2023-03-03T14:25:20.896Z,0.67
2023-03-03T14:28:47.685Z,0.68
2023-03-03T14:31:42.519Z,0.76
2023-03-03T14:51:39.486Z,0.92
2023-03-03T14:58:41.425Z,0.85
2023-03-03T15:01:38.342Z,0.71
2023-03-03T15:31:41.680Z,0.49
2023-03-03T15:34:59.886Z,0.41
2023-03-03T15:38:43.600Z,0.40
2023-03-03T15:53:34.768Z,0.27
2023-03-03T15:56:51.336Z,0.29
2023-03-03T16:00:05.376Z,0.32
2023-03-03T16:02:59.153Z,0.24
2023-03-03T16:06:09.079Z,0.27
2023-03-03T16:09:16.823Z,0.25
2023-03-03T16:12:31.608Z,0.33
2023-03-03T16:16:02.953Z,0.37
2023-03-03T16:19:04.068Z,0.51
2023-03-03T16:22:24.710Z,0.57
2023-03-03T16:26:03.990Z,0.61
2023-03-03T16:29:03.653Z,0.36
2023-03-03T16:31:57.771Z,0.41
2023-03-03T16:35:07.662Z,0.33
2023-03-03T16:38:05.637Z,0.23
2023-03-03T16:40:55.063Z,0.23
2023-03-03T16:44:00.029Z,0.21
2023-03-03T16:50:10.279Z,0.22
2023-03-03T16:53:15.413Z,0.30
2023-03-03T16:57:01.809Z,0.38
2023-03-03T17:00:05.010Z,0.36
2023-03-03T17:03:22.445Z,0.39
2023-03-03T17:06:10.904Z,0.43
2023-03-03T17:09:48.624Z,0.32
2023-03-03T17:13:29.660Z,0.36
2023-03-03T17:16:51.787Z,0.37
2023-03-03T17:31:48.960Z,0.48
2023-03-03T17:34:54.957Z,0.32
2023-03-03T17:38:03.423Z,0.18
2023-03-03T17:45:38.264Z,0.22
2023-03-03T17:53:20.988Z,0.19
2023-03-03T17:57:14.007Z,0.12
2023-03-03T18:00:19.377Z,0.03
2023-03-03T18:03:29.853Z,0.05
2023-03-03T18:06:37.514Z,0.05
2023-03-03T18:09:43.771Z,0.05
2023-03-03T18:13:05.345Z,0.07
2023-03-03T18:16:34.729Z,0.08
2023-03-03T18:21:05.934Z,0.05
2023-03-03T18:25:22.110Z,0.12
2023-03-03T18:29:19.209Z,0.09
2023-03-03T18:33:01.981Z,0.17
2023-03-03T19:05:48.352Z,0.11
2023-03-03T19:08:59.461Z,0.09
2023-03-03T19:11:54.778Z,0.16
2023-03-03T19:14:43.811Z,0.22
2023-03-03T19:20:53.673Z,0.14
2023-03-03T19:24:04.696Z,0.15
2023-03-03T19:27:39.649Z,0.16
2023-03-03T19:32:16.469Z,0.17
2023-03-03T19:35:30.727Z,0.11
2023-03-03T19:40:01.444Z,0.10
2023-03-03T19:43:06.672Z,0.15
2023-03-03T19:46:24.796Z,0.19
2023-03-03T19:49:43.470Z,0.18
2023-03-03T19:54:44.327Z,0.25
2023-03-03T19:58:01.768Z,0.26
2023-03-03T20:01:09.081Z,0.35
2023-03-03T20:04:06.526Z,0.38
2023-03-03T20:07:42.234Z,0.38
2023-03-03T20:10:56.460Z,0.43
2023-03-03T20:17:57.239Z,0.42
2023-03-03T20:20:46.998Z,0.40
2023-03-03T20:23:54.236Z,0.40
2023-03-03T20:26:59.514Z,0.36
2023-03-03T20:30:07.787Z,0.26
2023-03-03T20:33:10.972Z,0.28
2023-03-03T20:36:10.365Z,0.22
2023-03-03T20:39:08.848Z,0.38
2023-03-03T20:42:18.730Z,0.40
2023-03-03T20:45:18.267Z,0.36
2023-03-03T20:48:12.499Z,0.39
2023-03-03T20:51:22.988Z,0.41
2023-03-03T20:54:37.513Z,0.40
2023-03-03T20:57:42.059Z,0.37
2023-03-03T21:00:47.901Z,0.36
2023-03-03T21:03:38.019Z,0.43
2023-03-03T21:06:39.026Z,0.49
2023-03-03T21:09:38.353Z,0.44
2023-03-03T21:12:31.364Z,0.43
2023-03-03T21:15:36.694Z,0.44
2023-03-03T21:18:27.045Z,0.55
2023-03-03T21:21:13.891Z,0.48
2023-03-03T21:24:01.122Z,0.47
2023-03-03T21:27:03.387Z,0.51
2023-03-03T21:30:09.728Z,0.54
2023-03-03T21:32:56.736Z,0.60
2023-03-03T21:36:07.160Z,0.54
2023-03-03T21:38:54.286Z,0.55
2023-03-03T21:41:56.029Z,0.63
2023-03-03T21:44:50.275Z,0.68
2023-03-03T21:47:36.912Z,0.75
2023-03-03T21:50:23.214Z,0.77
2023-03-03T21:53:09.881Z,0.76
2023-03-03T21:55:57.013Z,0.76
2023-03-03T21:58:45.087Z,0.72
2023-03-03T22:01:31.440Z,0.71
2023-03-03T22:04:18.389Z,0.80
2023-03-03T22:07:05.905Z,0.83
2023-03-03T22:09:55.788Z,0.80
2023-03-03T22:12:44.702Z,0.76
2023-03-03T22:15:34.582Z,0.77
2023-03-03T22:18:21.676Z,0.80
2023-03-03T22:21:09.417Z,0.81
2023-03-03T22:23:56.267Z,0.92
2023-03-03T22:26:42.912Z,0.98
2023-03-03T22:29:29.762Z,0.92
2023-03-03T22:32:16.466Z,0.79
2023-03-03T22:35:03.855Z,0.75
2023-03-03T22:37:51.154Z,0.80
2023-03-03T22:40:37.926Z,0.90
2023-03-03T22:43:25.807Z,0.82
2023-03-03T22:46:13.103Z,0.81
2023-03-03T22:49:00.005Z,0.85
2023-03-03T22:51:46.595Z,0.80
2023-03-03T22:54:33.146Z,0.83
2023-03-03T22:57:20.041Z,0.81
2023-03-03T23:00:12.817Z,0.75
2023-03-03T23:02:59.053Z,0.74
2023-03-03T23:05:45.811Z,0.71
2023-03-03T23:08:33.183Z,0.72
2023-03-03T23:11:21.890Z,0.78
2023-03-03T23:14:08.729Z,0.74
2023-03-03T23:16:57.104Z,0.73
2023-03-03T23:19:46.457Z,0.73
2023-03-03T23:22:33.585Z,0.74
2023-03-03T23:25:23.203Z,0.79
2023-03-03T23:28:10.640Z,0.82
2023-03-03T23:30:57.075Z,0.74
2023-03-03T23:33:43.873Z,0.76
2023-03-03T23:36:31.193Z,0.83
2023-03-03T23:39:18.162Z,0.77
2023-03-03T23:42:05.153Z,0.74
2023-03-03T23:44:52.045Z,0.72
2023-03-03T23:47:38.660Z,0.71
2023-03-03T23:50:25.397Z,0.76
2023-03-03T23:53:12.025Z,0.77
2023-03-03T23:55:58.827Z,0.74
2023-03-03T23:58:47.127Z,0.74
